Antonina, Brazil
Current Conditions -  °F | °C
As of 3:00 AM on Saturday 25 Oct 2014 (Local Time) from SBCT Reporting Station
Overcast Overcast  
Wind Chill: 61°   Ceiling: 700
Heat Index: 61°   Visibility: 4mi
Dew Point: 59°   Wind: 3mph
Humidity: 94%   Direction: 120°ESE
Pressure: 30.03"   Gusts: NA
Location:  25.43°S, 48.71°W
Report Text: SBCT 250500Z 12003KT 6000 SCT003 OVC007 16/15 Q1017
Loading
Personal Weather Stations






























Interactive Weather Map
Tropical Storm Tracking
New forecast layout! Learn more

10-Day Weather Forecast

Advertisements
Track Severe Weather on mobile